createdAt,value
2022-12-03T14:04:41.378Z,25.95
2022-12-03T14:07:10.076Z,25.23
2022-12-03T14:09:44.899Z,26.02
2022-12-03T14:12:35.725Z,24.23
2022-12-03T14:15:10.169Z,24.40
2022-12-03T14:17:41.823Z,24.10
2022-12-03T14:20:14.713Z,25.55
2022-12-03T14:22:46.380Z,25.65
2022-12-03T14:25:19.928Z,25.58
2022-12-03T14:28:21.709Z,24.88
2022-12-03T14:30:54.130Z,25.90
2022-12-03T14:33:23.031Z,27.73
2022-12-03T14:35:56.871Z,27.77
2022-12-03T14:38:25.619Z,27.20
2022-12-03T14:40:54.202Z,27.05
2022-12-03T14:43:22.881Z,26.00
2022-12-03T14:45:52.119Z,28.33
2022-12-03T14:48:20.734Z,26.88
2022-12-03T14:50:49.469Z,27.98
2022-12-03T14:53:25.599Z,27.55
2022-12-03T14:55:58.476Z,27.13
2022-12-03T14:58:27.337Z,18.80
2022-12-03T15:00:55.993Z,26.80
2022-12-03T15:03:24.648Z,25.63
2022-12-03T15:05:53.343Z,26.35
2022-12-03T15:08:25.718Z,24.75
2022-12-03T15:11:33.257Z,26.08
2022-12-03T15:14:08.581Z,24.70
2022-12-03T15:16:37.327Z,24.05
2022-12-03T15:19:06.184Z,25.27
2022-12-03T15:21:37.773Z,21.75
2022-12-03T15:24:11.894Z,22.75
2022-12-03T15:26:41.985Z,22.15
2022-12-03T15:29:15.799Z,23.40
2022-12-03T15:31:49.277Z,24.08
2022-12-03T15:34:22.432Z,23.90
2022-12-03T15:37:09.651Z,22.48
2022-12-03T15:39:48.357Z,20.70
2022-12-03T15:42:49.807Z,22.60
2022-12-03T15:45:18.892Z,21.17
2022-12-03T15:47:47.599Z,22.23
2022-12-03T15:50:26.325Z,20.52
2022-12-03T15:53:00.963Z,20.52
2022-12-03T15:55:53.622Z,20.45
2022-12-03T15:58:22.515Z,22.95
2022-12-03T16:00:54.162Z,21.55
2022-12-03T16:03:23.043Z,21.63
2022-12-03T16:05:59.184Z,21.35
2022-12-03T16:08:28.160Z,20.00
2022-12-03T16:11:10.352Z,19.70
2022-12-03T16:13:42.294Z,21.00
2022-12-03T16:18:42.082Z,19.45
2022-12-03T16:21:35.452Z,21.08
2022-12-03T16:24:09.439Z,21.83
2022-12-03T16:26:46.432Z,23.23
2022-12-03T16:29:15.078Z,21.38
2022-12-03T16:32:01.475Z,22.42
2022-12-03T16:34:36.426Z,22.60
2022-12-03T16:37:10.976Z,24.65
2022-12-03T16:39:40.024Z,24.50
2022-12-03T16:42:17.167Z,25.15
2022-12-03T16:47:58.599Z,25.15
2022-12-03T16:50:29.955Z,25.85
2022-12-03T16:56:09.541Z,28.27
2022-12-03T16:58:55.864Z,28.90
2022-12-03T17:01:44.901Z,27.92
2022-12-03T17:04:13.616Z,28.88
2022-12-03T17:06:42.393Z,27.85
2022-12-03T17:09:11.067Z,29.55
2022-12-03T17:11:39.718Z,28.40
2022-12-03T17:14:10.373Z,29.42
2022-12-03T17:16:39.186Z,26.90
2022-12-03T17:19:08.096Z,29.92
2022-12-03T17:21:44.150Z,29.13
2022-12-03T17:24:27.624Z,28.90
2022-12-03T17:27:00.666Z,29.75
2022-12-03T17:29:34.693Z,29.48
2022-12-03T17:32:03.477Z,27.83
2022-12-03T17:34:32.160Z,29.05
2022-12-03T17:37:00.718Z,29.13
2022-12-03T17:39:29.308Z,27.73
2022-12-03T17:41:57.965Z,28.83
2022-12-03T17:44:26.623Z,30.25
2022-12-03T17:46:57.241Z,29.98
2022-12-03T17:49:31.307Z,28.85
2022-12-03T17:52:00.413Z,29.02
2022-12-03T17:54:43.480Z,28.52
2022-12-03T17:57:17.958Z,29.35
2022-12-03T17:59:46.531Z,30.38
2022-12-03T18:02:17.115Z,29.02
2022-12-03T18:04:45.795Z,27.70
2022-12-03T18:07:14.354Z,30.08
2022-12-03T18:09:42.964Z,30.00
2022-12-03T18:12:11.678Z,29.27
2022-12-03T18:14:40.291Z,30.50
2022-12-03T18:17:09.020Z,28.20
2022-12-03T18:19:39.515Z,29.00
2022-12-03T18:22:08.421Z,29.98
2022-12-03T18:24:37.268Z,29.75
2022-12-03T18:27:06.082Z,30.08
2022-12-03T18:29:34.724Z,30.63
2022-12-03T18:32:03.572Z,30.55
2022-12-03T18:34:32.361Z,30.40
2022-12-03T18:37:03.477Z,31.33
2022-12-03T18:39:36.146Z,30.08
2022-12-03T18:42:16.050Z,31.02
2022-12-03T18:44:49.649Z,31.75
2022-12-03T18:47:21.097Z,31.73
2022-12-03T18:49:50.212Z,30.42
2022-12-03T18:52:24.238Z,30.40
2022-12-03T18:54:53.785Z,29.67
2022-12-03T18:57:22.419Z,32.40
2022-12-03T18:59:51.056Z,32.10
2022-12-03T19:05:12.031Z,29.90
2022-12-03T19:07:42.689Z,30.75
2022-12-03T19:10:13.631Z,29.52
2022-12-03T19:12:57.362Z,30.00
2022-12-03T19:15:29.079Z,29.88
2022-12-03T19:17:57.759Z,30.38
2022-12-03T19:20:29.224Z,29.98
2022-12-03T19:23:01.765Z,29.00
2022-12-03T19:25:33.202Z,31.58
2022-12-03T19:28:04.652Z,31.73
2022-12-03T19:30:33.332Z,31.75
2022-12-03T19:33:04.259Z,31.17
2022-12-03T19:35:33.103Z,30.83
2022-12-03T19:38:04.908Z,30.15
2022-12-03T19:40:33.564Z,29.65
2022-12-03T19:43:05.255Z,31.83
2022-12-03T19:45:33.890Z,29.50
2022-12-03T19:48:02.630Z,31.67
2022-12-03T19:50:32.041Z,30.30
2022-12-03T19:53:00.676Z,29.95
2022-12-03T19:55:31.494Z,30.38
2022-12-03T19:58:02.899Z,30.33
2022-12-03T20:00:35.792Z,29.02
2022-12-03T20:03:07.664Z,29.42
2022-12-03T20:05:44.689Z,28.27
2022-12-03T20:08:13.347Z,30.08
2022-12-03T20:10:46.767Z,29.83
2022-12-03T20:13:21.558Z,29.75
2022-12-03T20:15:52.779Z,28.25
2022-12-03T20:18:21.508Z,22.05
2022-12-03T20:20:52.243Z,29.55
2022-12-03T20:23:20.960Z,30.42
2022-12-03T20:25:57.798Z,29.50
2022-12-03T20:28:27.952Z,29.35
2022-12-03T20:31:06.561Z,28.75
2022-12-03T20:33:38.174Z,27.98
2022-12-03T20:36:08.163Z,29.65
2022-12-03T20:38:37.229Z,28.90
2022-12-03T20:41:14.571Z,30.70
2022-12-03T20:43:43.751Z,29.38
2022-12-03T20:46:15.203Z,29.35
2022-12-03T20:48:47.498Z,28.67
2022-12-03T20:51:22.627Z,30.08
2022-12-03T20:53:54.161Z,28.20
2022-12-03T20:56:46.798Z,30.23
2022-12-03T20:59:19.197Z,29.20
2022-12-03T21:01:49.401Z,31.23
2022-12-03T21:04:18.742Z,30.58
2022-12-03T21:06:47.980Z,29.20
2022-12-03T21:09:19.473Z,29.10
2022-12-03T21:11:53.075Z,29.30
2022-12-03T21:14:21.746Z,29.02
2022-12-03T21:17:08.889Z,28.83
2022-12-03T21:19:38.999Z,28.83
2022-12-03T21:22:08.578Z,32.20
2022-12-03T21:24:37.708Z,28.60
2022-12-03T21:27:14.617Z,29.77
2022-12-03T21:29:46.976Z,28.48
2022-12-03T21:32:15.743Z,29.67
2022-12-03T21:34:44.495Z,28.77
2022-12-03T21:37:15.562Z,28.95
2022-12-03T21:39:44.160Z,31.23
2022-12-03T21:42:19.349Z,28.65
2022-12-03T21:45:04.110Z,28.15
2022-12-03T21:47:37.213Z,29.52
2022-12-03T21:50:10.456Z,30.33
2022-12-03T21:52:39.279Z,29.50
2022-12-03T21:55:09.138Z,29.20
2022-12-03T21:57:42.925Z,29.13
2022-12-03T22:00:13.682Z,28.83
2022-12-03T22:02:42.538Z,29.13
2022-12-03T22:05:12.852Z,29.20
2022-12-03T22:07:42.401Z,25.83
2022-12-03T22:10:13.321Z,29.40
2022-12-03T22:12:44.143Z,28.60
2022-12-03T22:15:18.726Z,30.05
2022-12-03T22:17:48.921Z,28.80
2022-12-03T22:20:18.922Z,28.88
2022-12-03T22:22:47.736Z,28.33
2022-12-03T22:25:16.651Z,29.33
2022-12-03T22:27:48.680Z,29.83
2022-12-03T22:30:17.692Z,29.33
2022-12-03T22:32:46.619Z,29.90
2022-12-03T22:35:15.474Z,29.70
2022-12-03T22:37:44.123Z,29.60
2022-12-03T22:40:13.756Z,29.98
2022-12-03T22:42:47.760Z,28.83
2022-12-03T22:45:21.389Z,27.63
2022-12-03T22:47:50.219Z,28.65
2022-12-03T22:50:19.278Z,27.85
2022-12-03T22:52:47.883Z,29.02
2022-12-03T22:55:16.862Z,29.98
2022-12-03T22:57:45.459Z,30.25
2022-12-03T23:00:17.551Z,30.85
2022-12-03T23:02:48.215Z,30.52
2022-12-03T23:05:17.222Z,28.65
2022-12-03T23:07:45.935Z,29.63
2022-12-03T23:10:14.637Z,29.92
2022-12-03T23:12:43.464Z,30.75
2022-12-03T23:15:13.037Z,28.83
2022-12-03T23:17:42.630Z,30.48
2022-12-03T23:20:15.084Z,28.88
2022-12-03T23:22:43.768Z,29.38
2022-12-03T23:25:13.665Z,28.92
2022-12-03T23:27:42.511Z,29.67
2022-12-03T23:30:14.104Z,30.55
2022-12-03T23:32:43.768Z,29.95
2022-12-03T23:35:14.631Z,29.75
2022-12-03T23:37:45.228Z,20.98
2022-12-03T23:40:15.779Z,28.80
2022-12-03T23:42:44.492Z,28.85
2022-12-03T23:45:13.438Z,31.05
2022-12-03T23:47:42.178Z,29.63
2022-12-03T23:50:13.942Z,28.70
2022-12-03T23:52:42.700Z,30.60
2022-12-03T23:55:12.087Z,29.85
2022-12-03T23:57:40.775Z,29.70
